Time;durP1;ratioP1;P1;durP2;ratioP2;P2;SDS_P1;SDS_P2;PMS_P1;PMS_P2;Temp;Humidity;BMP_temperature;BMP_pressure;BME280_temperature;BME280_humidity;BME280_pressure;Samples;Min_cycle;Max_cycle;Signal;HPM_P1;HPM_P2
2021/08/25 00:00:02;;;;;;;9.90;7.78;;;;;;;13.08;100.00;96570.00;1035434;28;20403;-52
2021/08/25 00:00:32;;;;;;;10.93;7.47;;;;;;;13.01;100.00;96572.25;1032269;28;20022;-54
2021/08/25 00:01:03;;;;;;;8.35;7.40;;;;;;;13.02;100.00;96573.91;1032054;28;20473;-52
2021/08/25 00:01:34;;;;;;;9.15;7.70;;;;;;;13.03;100.00;96575.59;1032128;28;20014;-53
2021/08/25 00:02:04;;;;;;;9.45;7.90;;;;;;;13.07;100.00;96567.50;1032132;28;20072;-54
2021/08/25 00:02:35;;;;;;;10.88;7.97;;;;;;;13.02;100.00;96571.28;1032233;28;20424;-53
2021/08/25 00:03:06;;;;;;;9.07;7.55;;;;;;;13.05;100.00;96564.97;1031680;28;20113;-52
2021/08/25 00:03:36;;;;;;;9.68;7.93;;;;;;;13.05;100.00;96572.88;1031472;28;20105;-56
2021/08/25 00:04:07;;;;;;;9.57;7.32;;;;;;;13.06;100.00;96573.72;1027585;28;20084;-52
2021/08/25 00:04:38;;;;;;;9.18;7.75;;;;;;;13.06;100.00;96571.09;1028088;28;20027;-53
2021/08/25 00:05:09;;;;;;;7.97;7.18;;;;;;;13.05;100.00;96564.97;1031714;28;20046;-53
2021/08/25 00:05:40;;;;;;;8.38;7.47;;;;;;;13.09;100.00;96558.56;1032227;28;20034;-53
2021/08/25 00:06:11;;;;;;;10.65;7.60;;;;;;;13.04;100.00;96571.19;1035501;28;20014;-53
2021/08/25 00:06:41;;;;;;;12.25;7.72;;;;;;;13.05;100.00;96564.16;1032186;28;20019;-53
2021/08/25 00:07:12;;;;;;;9.00;7.82;;;;;;;13.03;100.00;96562.47;1031482;28;20029;-53
2021/08/25 00:07:43;;;;;;;8.80;7.70;;;;;;;13.06;100.00;96565.81;1031887;28;20022;-53
2021/08/25 00:08:13;;;;;;;9.10;7.13;;;;;;;13.03;100.00;96565.09;1032011;28;20025;-53
2021/08/25 00:08:44;;;;;;;9.30;7.50;;;;;;;13.03;100.00;96564.25;1032199;28;20026;-53
2021/08/25 00:09:15;;;;;;;9.40;7.10;;;;;;;13.00;100.00;96560.03;1031929;28;20037;-52
2021/08/25 00:09:45;;;;;;;9.35;7.88;;;;;;;13.05;100.00;96558.91;1032258;28;20088;-52
2021/08/25 00:10:16;;;;;;;9.07;7.60;;;;;;;13.06;100.00;96560.56;1031998;28;20069;-53
2021/08/25 00:10:46;;;;;;;8.68;7.40;;;;;;;13.09;100.00;96563.81;1032214;28;20033;-52
2021/08/25 00:11:17;;;;;;;9.57;7.93;;;;;;;13.03;100.00;96557.19;1032056;28;20022;-52
2021/08/25 00:11:48;;;;;;;8.77;7.25;;;;;;;13.05;100.00;96561.53;1032152;28;20027;-53
2021/08/25 00:12:18;;;;;;;8.63;7.72;;;;;;;13.07;100.00;96557.81;1032062;28;20018;-52
2021/08/25 00:12:49;;;;;;;8.60;7.70;;;;;;;13.07;100.00;96560.44;1032156;28;20029;-55
2021/08/25 00:13:20;;;;;;;12.32;8.00;;;;;;;13.09;100.00;96561.19;1032035;28;20607;-52
2021/08/25 00:13:51;;;;;;;9.18;7.93;;;;;;;13.05;100.00;96556.25;1035254;28;20124;-52
2021/08/25 00:14:22;;;;;;;8.43;7.50;;;;;;;12.97;100.00;96560.25;1035688;28;20017;-52
2021/08/25 00:14:53;;;;;;;8.95;7.47;;;;;;;13.02;100.00;96558.13;1035926;28;20392;-52
2021/08/25 00:15:23;;;;;;;10.40;8.43;;;;;;;13.03;100.00;96557.19;1035573;28;20041;-52
2021/08/25 00:15:56;;;;;;;10.18;8.38;;;;;;;13.01;100.00;96556.47;1032140;28;20041;-53
2021/08/25 00:16:27;;;;;;;8.82;7.22;;;;;;;13.05;100.00;96558.91;1032198;28;20026;-53
2021/08/25 00:16:57;;;;;;;8.98;7.93;;;;;;;13.03;100.00;96554.56;1032231;28;20522;-54
2021/08/25 00:17:28;;;;;;;9.70;8.35;;;;;;;13.00;100.00;96553.94;1032036;28;20049;-53
2021/08/25 00:17:58;;;;;;;8.98;7.43;;;;;;;13.01;100.00;96553.84;1032223;28;20055;-53
2021/08/25 00:18:29;;;;;;;10.60;8.00;;;;;;;12.96;100.00;96553.31;1032067;28;20125;-56
2021/08/25 00:19:00;;;;;;;8.40;7.40;;;;;;;12.99;100.00;96554.91;1032254;28;20025;-54
2021/08/25 00:19:30;;;;;;;9.85;8.07;;;;;;;12.97;100.00;96548.88;1031844;28;20050;-54
2021/08/25 00:20:03;;;;;;;9.20;8.15;;;;;;;12.91;100.00;96547.53;1032122;28;20023;-53
2021/08/25 00:20:34;;;;;;;10.15;8.07;;;;;;;12.94;100.00;96552.56;1031983;28;20056;-51
2021/08/25 00:21:04;;;;;;;9.40;8.25;;;;;;;12.90;100.00;96550.28;1032133;28;20025;-52
2021/08/25 00:21:35;;;;;;;10.40;8.00;;;;;;;12.88;100.00;96544.28;1031929;28;20022;-51
2021/08/25 00:22:06;;;;;;;11.25;7.70;;;;;;;12.86;100.00;96551.41;1032032;28;20014;-54
2021/08/25 00:22:37;;;;;;;9.23;8.10;;;;;;;12.94;100.00;96549.94;1032128;28;20026;-56
2021/08/25 00:23:08;;;;;;;11.10;8.00;;;;;;;12.90;100.00;96542.41;1032093;28;20014;-54
2021/08/25 00:23:38;;;;;;;10.05;8.35;;;;;;;12.85;100.00;96550.59;1031280;28;20487;-53
2021/08/25 00:24:09;;;;;;;8.90;7.82;;;;;;;12.85;100.00;96545.34;1035794;28;20018;-53
2021/08/25 00:24:40;;;;;;;8.55;7.45;;;;;;;12.93;100.00;96548.28;1035854;28;20480;-53
2021/08/25 00:25:11;;;;;;;9.65;7.97;;;;;;;12.92;100.00;96551.84;1035888;28;20045;-51
2021/08/25 00:25:41;;;;;;;11.77;8.13;;;;;;;12.91;100.00;96547.53;1035593;28;20028;-56
2021/08/25 00:26:12;;;;;;;8.57;7.68;;;;;;;12.92;100.00;96549.22;1031994;28;20527;-54
2021/08/25 00:26:46;;;;;;;10.20;7.88;;;;;;;12.90;100.00;96551.13;1032100;28;20490;-53
2021/08/25 00:27:17;;;;;;;8.73;7.82;;;;;;;12.92;100.00;96548.38;1035753;28;20108;-52
2021/08/25 00:27:48;;;;;;;11.02;7.55;;;;;;;12.93;100.00;96544.78;1035757;28;20072;-54
2021/08/25 00:28:18;;;;;;;8.90;7.93;;;;;;;12.89;100.00;96554.69;1035740;28;20018;-52
2021/08/25 00:28:49;;;;;;;10.50;8.32;;;;;;;12.92;100.00;96553.66;1035206;28;20483;-51
2021/08/25 00:29:19;;;;;;;10.82;8.82;;;;;;;12.94;100.00;96549.13;1032072;28;20019;-51
2021/08/25 00:29:51;;;;;;;9.18;8.18;;;;;;;12.95;100.00;96551.66;1032012;28;20022;-51
2021/08/25 00:30:21;;;;;;;9.68;8.20;;;;;;;12.93;100.00;96547.41;1031995;28;20013;-51
2021/08/25 00:30:52;;;;;;;10.75;8.38;;;;;;;12.93;100.00;96550.06;1032042;28;20026;-51
2021/08/25 00:31:23;;;;;;;9.70;7.80;;;;;;;12.90;100.00;96547.66;1035797;28;20108;-52
2021/08/25 00:31:53;;;;;;;9.07;8.18;;;;;;;12.90;100.00;96550.28;1035686;28;20021;-51
2021/08/25 00:32:24;;;;;;;10.63;7.95;;;;;;;12.89;100.00;96549.41;1035781;28;20041;-52
2021/08/25 00:32:54;;;;;;;9.80;8.57;;;;;;;12.91;100.00;96555.41;1035649;28;20014;-52
2021/08/25 00:33:25;;;;;;;11.43;8.68;;;;;;;12.88;100.00;96550.38;1031922;28;20383;-50
2021/08/25 00:33:57;;;;;;;9.40;8.27;;;;;;;12.87;100.00;96553.94;1031579;28;20366;-53
2021/08/25 00:34:28;;;;;;;10.45;8.38;;;;;;;12.87;100.00;96548.69;1031768;28;20019;-52
2021/08/25 00:34:59;;;;;;;9.55;8.55;;;;;;;12.83;100.00;96552.50;1032146;28;20090;-51
2021/08/25 00:35:29;;;;;;;10.05;7.88;;;;;;;12.80;100.00;96548.28;1032032;28;20449;-52
2021/08/25 00:36:00;;;;;;;14.23;8.85;;;;;;;12.87;100.00;96553.94;1032034;28;20022;-53
2021/08/25 00:36:31;;;;;;;10.13;8.30;;;;;;;12.81;100.00;96551.75;1031830;28;20010;-52
2021/08/25 00:37:01;;;;;;;9.60;8.60;;;;;;;12.86;100.00;96548.78;1032192;28;20030;-51
2021/08/25 00:37:32;;;;;;;10.40;8.50;;;;;;;12.78;100.00;96549.31;1032038;28;20354;-52
2021/08/25 00:38:03;;;;;;;10.07;8.80;;;;;;;12.75;100.00;96553.03;1032049;28;20101;-52
2021/08/25 00:38:33;;;;;;;12.18;9.23;;;;;;;12.70;100.00;96556.91;1031896;28;20093;-51
2021/08/25 00:39:04;;;;;;;9.70;8.70;;;;;;;12.70;100.00;96559.56;1035371;28;20014;-55
2021/08/25 00:39:35;;;;;;;11.30;8.98;;;;;;;12.74;100.00;96559.22;1035795;28;20018;-52
2021/08/25 00:40:06;;;;;;;10.30;8.88;;;;;;;12.71;100.00;96551.56;1035855;28;20092;-51
2021/08/25 00:40:36;;;;;;;15.98;9.13;;;;;;;12.71;100.00;96545.47;1035417;28;20010;-52
2021/08/25 00:41:07;;;;;;;10.35;8.82;;;;;;;12.77;100.00;96542.41;1032155;28;20030;-51
2021/08/25 00:41:38;;;;;;;12.10;9.20;;;;;;;12.74;100.00;96538.19;1032076;28;20014;-51
2021/08/25 00:42:08;;;;;;;10.13;8.90;;;;;;;12.74;100.00;96553.97;1031923;28;20010;-54
2021/08/25 00:42:39;;;;;;;10.13;9.10;;;;;;;12.68;100.00;96548.31;1035521;28;20013;-51
2021/08/25 00:43:10;;;;;;;11.63;9.48;;;;;;;12.70;100.00;96549.88;1035782;28;20368;-53
2021/08/25 00:43:41;;;;;;;11.75;9.80;;;;;;;12.74;100.00;96553.97;1035167;28;20014;-52
2021/08/25 00:44:12;;;;;;;11.25;9.23;;;;;;;12.69;100.00;96552.59;1035042;28;20396;-52
2021/08/25 00:44:44;;;;;;;12.63;8.75;;;;;;;12.71;100.00;96542.84;1031488;28;20472;-52
2021/08/25 00:45:15;;;;;;;10.68;9.45;;;;;;;12.67;100.00;96554.50;1031708;28;20042;-53
2021/08/25 00:45:45;;;;;;;10.73;8.90;;;;;;;12.61;100.00;96547.88;1031810;28;20062;-52
2021/08/25 00:46:16;;;;;;;13.98;10.18;;;;;;;12.64;100.00;96552.94;1031414;28;20019;-51
2021/08/25 00:46:47;;;;;;;12.50;9.45;;;;;;;12.70;100.00;96552.50;1027865;28;20393;-52
2021/08/25 00:47:18;;;;;;;11.82;9.88;;;;;;;12.71;100.00;96553.34;1028009;28;20019;-52
2021/08/25 00:47:49;;;;;;;11.13;9.93;;;;;;;12.72;100.00;96557.66;1031762;28;20026;-52
2021/08/25 00:48:20;;;;;;;12.93;9.55;;;;;;;12.64;100.00;96556.38;1031691;28;20022;-52
2021/08/25 00:48:51;;;;;;;11.30;9.55;;;;;;;12.64;100.00;96556.38;1031588;28;20041;-54
2021/08/25 00:49:22;;;;;;;12.68;9.75;;;;;;;12.62;100.00;96555.66;1031425;28;20014;-50
2021/08/25 00:49:53;;;;;;;10.52;8.93;;;;;;;12.68;100.00;96559.66;1027958;28;20015;-53
2021/08/25 00:50:23;;;;;;;12.27;9.57;;;;;;;12.66;100.00;96555.44;1027980;28;20022;-52
2021/08/25 00:50:54;;;;;;;10.82;9.18;;;;;;;12.70;100.00;96554.28;1027843;28;20479;-51
2021/08/25 00:51:24;;;;;;;11.57;9.88;;;;;;;12.70;100.00;96557.75;1027987;28;20536;-52
2021/08/25 00:51:55;;;;;;;10.65;9.52;;;;;;;12.66;100.00;96556.28;1028046;28;20392;-53
2021/08/25 00:52:26;;;;;;;10.35;9.00;;;;;;;12.67;100.00;96555.34;1027899;28;20023;-52
2021/08/25 00:52:56;;;;;;;11.40;9.60;;;;;;;12.63;100.00;96559.97;1031504;28;20057;-51
2021/08/25 00:53:27;;;;;;;11.02;9.27;;;;;;;12.63;100.00;96557.34;1031530;28;20022;-53
2021/08/25 00:54:00;;;;;;;11.88;9.88;;;;;;;12.60;100.00;96556.72;1031270;28;20031;-51
2021/08/25 00:54:30;;;;;;;11.68;9.95;;;;;;;12.57;100.00;96555.13;1031123;28;20018;-52
2021/08/25 00:55:01;;;;;;;11.95;9.63;;;;;;;12.56;100.00;96561.34;1027966;28;20015;-54
2021/08/25 00:55:35;;;;;;;9.75;8.75;;;;;;;12.61;100.00;96556.63;1027960;28;20014;-51
2021/08/25 00:56:06;;;;;;;15.60;10.18;;;;;;;12.50;100.00;96542.50;1028096;28;20069;-53
2021/08/25 00:56:37;;;;;;;11.93;9.73;;;;;;;12.62;100.00;96562.72;1027828;28;20018;-51
2021/08/25 00:57:08;;;;;;;12.23;9.88;;;;;;;12.60;100.00;96562.81;1031588;28;20026;-52
2021/08/25 00:57:38;;;;;;;11.77;10.23;;;;;;;12.64;100.00;96564.28;1031613;28;20014;-52
2021/08/25 00:58:09;;;;;;;12.32;9.77;;;;;;;12.64;100.00;96561.66;1031705;28;20101;-53
2021/08/25 00:58:40;;;;;;;11.50;9.90;;;;;;;12.68;100.00;96558.81;1031556;28;20397;-53
2021/08/25 00:59:12;;;;;;;13.77;10.38;;;;;;;12.71;100.00;96546.31;1031529;28;20018;-54
2021/08/25 00:59:43;;;;;;;13.40;9.60;;;;;;;12.72;100.00;96555.03;1031641;28;20065;-51
2021/08/25 01:00:14;;;;;;;11.07;9.68;;;;;;;12.66;100.00;96552.81;1031692;28;20129;-52
2021/08/25 01:00:51;;;;;;;11.95;9.93;;;;;;;12.66;100.00;96563.34;1031639;28;20484;-52
2021/08/25 01:05:08;;;;;;;10.60;9.35;;;;;;;12.67;100.00;96562.38;1040064;28;20044;-51
2021/08/25 01:05:39;;;;;;;10.73;9.45;;;;;;;12.63;100.00;96561.75;1042868;28;20013;-52
2021/08/25 01:06:20;;;;;;;11.65;9.85;;;;;;;12.53;100.00;96553.66;1044300;28;20021;-52
2021/08/25 01:06:50;;;;;;;11.13;9.93;;;;;;;12.55;100.00;96550.94;1044260;28;20039;-52
2021/08/25 01:07:22;;;;;;;11.20;10.00;;;;;;;12.60;100.00;96556.72;1044256;28;20112;-52
2021/08/25 01:07:53;;;;;;;11.30;9.82;;;;;;;12.57;100.00;96557.75;1040052;28;20052;-52
2021/08/25 01:08:24;;;;;;;11.85;10.35;;;;;;;12.56;100.00;96561.34;1039745;28;20021;-52
2021/08/25 01:08:57;;;;;;;11.20;9.30;;;;;;;12.58;100.00;96559.44;1035657;28;20030;-52
2021/08/25 01:09:27;;;;;;;12.85;10.73;;;;;;;12.60;100.00;96560.19;1027740;28;20051;-52
2021/08/25 01:09:58;;;;;;;11.63;9.63;;;;;;;12.66;100.00;96556.28;1027639;28;20027;-52
2021/08/25 01:10:30;;;;;;;10.57;8.95;;;;;;;12.64;100.00;96561.66;1028520;28;20387;-51
2021/08/25 01:11:06;;;;;;;12.32;9.63;;;;;;;12.69;100.00;96561.34;1036450;28;20046;-51
2021/08/25 01:11:42;;;;;;;12.27;10.10;;;;;;;12.70;100.00;96564.81;1040200;28;20006;-52
2021/08/25 01:12:13;;;;;;;10.52;9.25;;;;;;;12.63;100.00;96554.72;1040115;28;20301;-52
2021/08/25 01:12:43;;;;;;;11.98;9.77;;;;;;;12.61;100.00;96559.25;1039538;28;20022;-54
2021/08/25 01:13:14;;;;;;;11.55;10.15;;;;;;;12.63;100.00;96552.09;1039460;28;20041;-53
2021/08/25 01:13:45;;;;;;;10.38;9.27;;;;;;;12.63;100.00;96552.09;1039793;28;20021;-52
2021/08/25 01:14:16;;;;;;;14.48;10.75;;;;;;;12.61;100.00;96554.00;1039853;28;20009;-51
2021/08/25 01:14:47;;;;;;;11.23;10.02;;;;;;;12.58;100.00;96558.63;1040021;28;20021;-52
2021/08/25 01:15:18;;;;;;;12.63;10.27;;;;;;;12.57;100.00;96560.38;1040151;28;20493;-54
2021/08/25 01:15:48;;;;;;;15.63;10.98;;;;;;;12.62;100.00;96550.41;1040176;28;20013;-53
2021/08/25 01:16:19;;;;;;;10.98;9.63;;;;;;;12.63;100.00;96552.09;1040187;28;20088;-52
2021/08/25 01:16:49;;;;;;;10.98;9.88;;;;;;;12.69;100.00;96550.81;1040020;28;20374;-52
2021/08/25 01:17:29;;;;;;;12.02;9.68;;;;;;;12.64;100.00;96548.50;1039809;28;20037;-52
2021/08/25 01:18:04;;;;;;;10.90;9.80;;;;;;;12.68;100.00;96550.94;1038979;28;20017;-52
2021/08/25 01:18:34;;;;;;;11.13;9.63;;;;;;;12.65;100.00;96554.63;1040471;28;20505;-52
2021/08/25 01:19:05;;;;;;;11.88;10.23;;;;;;;12.69;100.00;96556.09;1043184;28;20024;-52
2021/08/25 01:19:46;;;;;;;12.18;9.70;;;;;;;12.71;100.00;96555.97;1037501;28;20468;-53
2021/08/25 01:20:17;;;;;;;12.20;9.88;;;;;;;12.71;100.00;96554.19;1033147;28;20599;-52
2021/08/25 01:20:48;;;;;;;11.38;9.55;;;;;;;12.69;100.00;96545.56;1032885;28;20387;-52
2021/08/25 01:21:19;;;;;;;12.82;10.02;;;;;;;12.69;100.00;96544.72;1034733;28;20097;-52
2021/08/25 01:21:49;;;;;;;11.18;10.00;;;;;;;12.62;100.00;96544.31;1031009;28;20015;-51
2021/08/25 01:22:20;;;;;;;13.63;10.35;;;;;;;12.63;100.00;96545.97;1037168;28;20550;-53
2021/08/25 01:22:51;;;;;;;10.82;9.73;;;;;;;12.58;100.00;96543.66;1036995;28;20478;-49
2021/08/25 01:23:22;;;;;;;11.18;9.55;;;;;;;12.58;100.00;96548.94;1041519;28;20470;-52
2021/08/25 01:23:53;;;;;;;13.23;9.82;;;;;;;12.62;100.00;96546.94;1045082;28;20108;-52
2021/08/25 01:24:24;;;;;;;10.07;9.07;;;;;;;12.58;100.00;96538.41;1045223;28;20016;-52
2021/08/25 01:24:56;;;;;;;11.48;9.55;;;;;;;12.64;100.00;96543.25;1041220;28;20097;-52
2021/08/25 01:25:27;;;;;;;11.40;10.05;;;;;;;12.62;100.00;96539.88;1041481;28;20063;-53
2021/08/25 01:26:00;;;;;;;10.57;9.48;;;;;;;12.56;100.00;96537.69;1045154;28;20021;-55
2021/08/25 01:26:31;;;;;;;11.55;10.05;;;;;;;12.54;100.00;96539.59;1040377;28;20036;-51
2021/08/25 01:27:02;;;;;;;12.73;9.77;;;;;;;12.53;100.00;96543.13;1037122;28;20108;-54
2021/08/25 01:27:33;;;;;;;13.27;9.43;;;;;;;12.56;100.00;96531.59;1037055;28;20028;-51
2021/08/25 01:28:07;;;;;;;11.82;9.73;;;;;;;12.60;100.00;96538.31;1028950;28;20097;-51
2021/08/25 01:28:45;;;;;;;11.18;9.98;;;;;;;12.64;100.00;96537.16;1033049;28;20546;-52
2021/08/25 01:29:29;;;;;;;10.60;9.43;;;;;;;12.62;100.00;96537.25;1034712;28;20473;-52
2021/08/25 01:30:00;;;;;;;13.25;10.63;;;;;;;12.62;100.00;96537.25;1040764;28;20063;-54
2021/08/25 01:30:32;;;;;;;11.50;10.25;;;;;;;12.64;100.00;96526.63;1041073;28;20410;-50
2021/08/25 01:31:03;;;;;;;11.45;10.20;;;;;;;12.61;100.00;96522.44;1041130;28;20021;-51
2021/08/25 01:31:33;;;;;;;12.00;9.82;;;;;;;12.58;100.00;96530.53;1033006;28;20101;-52
2021/08/25 01:32:04;;;;;;;12.50;9.50;;;;;;;12.48;100.00;96518.97;1033236;28;20149;-54
2021/08/25 01:32:39;;;;;;;10.88;9.75;;;;;;;12.59;100.00;96529.59;1032922;28;20026;-52
2021/08/25 01:33:26;;;;;;;10.73;9.63;;;;;;;12.61;100.00;96532.97;1034229;28;20023;-51
2021/08/25 01:34:06;;;;;;;12.70;9.82;;;;;;;12.67;100.00;96528.19;1041231;28;20021;-51
2021/08/25 01:34:54;;;;;;;11.98;9.73;;;;;;;12.54;100.00;96521.19;1042145;28;20036;-52
2021/08/25 01:35:37;;;;;;;13.70;9.60;;;;;;;12.56;100.00;96524.53;1045555;28;20059;-52
2021/08/25 01:36:15;;;;;;;11.95;9.80;;;;;;;12.51;100.00;96524.00;1045475;28;20028;-52
2021/08/25 01:36:50;;;;;;;11.48;9.85;;;;;;;12.45;100.00;96522.66;1045597;28;20478;-51
2021/08/25 01:37:24;;;;;;;12.85;10.00;;;;;;;12.43;100.00;96526.34;1045577;28;20009;-53
2021/08/25 01:37:55;;;;;;;11.13;10.02;;;;;;;12.43;100.00;96521.91;1045523;28;20032;-53
2021/08/25 01:38:29;;;;;;;12.38;10.10;;;;;;;12.44;100.00;96522.75;1040957;28;20441;-52
2021/08/25 01:38:59;;;;;;;10.35;9.23;;;;;;;12.43;100.00;96521.91;1041187;28;20506;-52
2021/08/25 01:39:30;;;;;;;11.90;9.38;;;;;;;12.42;100.00;96516.75;1041132;28;20068;-52
2021/08/25 01:40:00;;;;;;;10.82;9.20;;;;;;;12.45;100.00;96516.56;1041828;28;20041;-54
2021/08/25 01:40:35;;;;;;;10.70;9.60;;;;;;;12.33;100.00;96520.88;1045433;28;20097;-52
2021/08/25 01:41:06;;;;;;;12.10;9.98;;;;;;;12.32;100.00;96523.59;1045623;28;20087;-52
2021/08/25 01:41:36;;;;;;;11.43;9.35;;;;;;;12.30;100.00;96518.44;1045512;28;20021;-51
2021/08/25 01:42:07;;;;;;;12.80;10.13;;;;;;;12.29;100.00;96527.25;1045588;28;20028;-53
2021/08/25 01:42:38;;;;;;;14.23;10.05;;;;;;;12.25;100.00;96520.53;1045446;28;20017;-51
2021/08/25 01:43:09;;;;;;;11.68;10.25;;;;;;;12.23;100.00;96520.63;1045137;28;20021;-55
2021/08/25 01:43:39;;;;;;;11.65;9.63;;;;;;;12.22;100.00;96518.97;1045572;28;20092;-52
2021/08/25 01:44:10;;;;;;;10.93;9.65;;;;;;;12.22;100.00;96523.38;1045569;28;20543;-52
2021/08/25 01:44:41;;;;;;;15.13;9.15;;;;;;;12.23;100.00;96525.06;1045531;28;20040;-54
2021/08/25 01:45:12;;;;;;;11.07;9.48;;;;;;;12.21;100.00;96529.56;1045505;28;20070;-52
2021/08/25 01:45:42;;;;;;;10.95;9.73;;;;;;;12.18;100.00;96521.88;1045539;28;20096;-52
2021/08/25 01:46:21;;;;;;;11.00;9.80;;;;;;;12.20;100.00;96528.75;1045598;28;20040;-54
2021/08/25 01:46:52;;;;;;;12.18;9.73;;;;;;;12.19;100.00;96527.03;1045485;28;20397;-52
2021/08/25 01:47:22;;;;;;;12.38;9.52;;;;;;;12.21;100.00;96526.94;1045581;28;20055;-52
2021/08/25 01:47:53;;;;;;;14.18;10.27;;;;;;;12.14;100.00;96523.88;1045564;28;20378;-54
2021/08/25 01:48:24;;;;;;;12.07;9.77;;;;;;;12.09;100.00;96523.38;1045522;28;20092;-53
2021/08/25 01:48:58;;;;;;;12.05;10.30;;;;;;;12.08;100.00;96526.94;1045409;28;20019;-52
2021/08/25 01:49:29;;;;;;;10.80;9.70;;;;;;;12.06;100.00;96523.56;1045523;28;20406;-52
2021/08/25 01:49:59;;;;;;;10.95;9.70;;;;;;;12.08;100.00;96526.09;1045503;28;20099;-53
2021/08/25 01:50:30;;;;;;;12.40;10.32;;;;;;;12.06;100.00;96527.03;1045632;28;20425;-52
2021/08/25 01:51:02;;;;;;;11.82;9.90;;;;;;;12.03;100.00;96526.38;1045413;28;20466;-52
2021/08/25 01:51:37;;;;;;;12.38;10.40;;;;;;;12.04;100.00;96528.09;1045574;28;20009;-52
2021/08/25 01:52:07;;;;;;;11.43;9.85;;;;;;;12.03;100.00;96532.50;1041438;28;20466;-52
2021/08/25 01:52:38;;;;;;;10.88;9.68;;;;;;;12.01;100.00;96526.50;1041456;28;20021;-51
2021/08/25 01:53:10;;;;;;;13.00;9.95;;;;;;;11.99;100.00;96525.78;1040952;28;20075;-51
2021/08/25 01:53:40;;;;;;;14.13;9.93;;;;;;;11.98;100.00;96531.97;1041339;28;20014;-51
2021/08/25 01:54:11;;;;;;;12.30;10.52;;;;;;;11.97;100.00;96526.81;1041016;28;20014;-52
2021/08/25 01:54:42;;;;;;;13.20;10.43;;;;;;;11.95;100.00;96528.69;1051025;23;20021;-66
2021/08/25 01:55:13;;;;;;;11.43;10.23;;;;;;;11.96;100.00;96525.13;1054804;22;20070;-50
2021/08/25 01:55:44;;;;;;;12.30;10.30;;;;;;;11.90;100.00;96525.53;1040094;28;20017;-51
2021/08/25 01:56:15;;;;;;;12.20;10.45;;;;;;;11.92;100.00;96531.50;1038057;28;20057;-51
2021/08/25 01:56:46;;;;;;;11.13;9.98;;;;;;;11.92;100.00;96532.38;1036948;28;20021;-50
2021/08/25 01:57:17;;;;;;;11.75;10.02;;;;;;;11.91;100.00;96521.97;1039508;28;20473;-49
2021/08/25 01:57:48;;;;;;;10.82;9.75;;;;;;;11.89;100.00;96527.28;1041133;28;20557;-50
2021/08/25 01:58:18;;;;;;;13.88;11.15;;;;;;;11.89;100.00;96522.03;1041277;28;20009;-51
2021/08/25 01:58:49;;;;;;;12.30;10.18;;;;;;;11.86;100.00;96527.47;1041366;28;20351;-51
2021/08/25 01:59:19;;;;;;;11.38;10.18;;;;;;;11.84;100.00;96524.13;1039152;28;20048;-51
2021/08/25 01:59:50;;;;;;;11.20;10.00;;;;;;;11.82;100.00;96528.63;1037238;28;20507;-51
2021/08/25 02:00:21;;;;;;;16.00;10.68;;;;;;;11.82;100.00;96523.38;1037269;28;20022;-50
2021/08/25 02:00:51;;;;;;;12.35;10.10;;;;;;;11.81;100.00;96522.53;1037252;28;20022;-51
2021/08/25 02:01:22;;;;;;;12.20;9.57;;;;;;;11.80;100.00;96523.47;1037145;28;20029;-51
2021/08/25 02:01:52;;;;;;;12.18;10.60;;;;;;;11.78;100.00;96524.53;1037335;28;20026;-50
2021/08/25 02:02:23;;;;;;;13.25;10.52;;;;;;;11.74;100.00;96521.25;1037357;28;20036;-50
2021/08/25 02:02:54;;;;;;;11.68;10.48;;;;;;;11.75;100.00;96524.72;1037184;28;20438;-50
2021/08/25 02:03:24;;;;;;;12.50;10.35;;;;;;;11.73;100.00;96523.97;1037474;28;20535;-51
2021/08/25 02:03:55;;;;;;;16.75;10.80;;;;;;;11.73;100.00;96518.72;1041407;28;20025;-51
2021/08/25 02:04:25;;;;;;;15.10;10.70;;;;;;;11.71;100.00;96523.25;1041387;28;20025;-51
2021/08/25 02:04:56;;;;;;;12.40;10.68;;;;;;;11.67;100.00;96520.84;1041336;28;20289;-51
2021/08/25 02:05:27;;;;;;;12.27;10.93;;;;;;;11.67;100.00;96520.84;1041229;28;20029;-50
2021/08/25 02:05:57;;;;;;;12.15;10.93;;;;;;;11.67;100.00;96520.84;1041454;28;20095;-50
2021/08/25 02:06:29;;;;;;;12.02;10.35;;;;;;;11.65;100.00;96524.47;1041441;28;20041;-51
2021/08/25 02:07:00;;;;;;;12.70;11.23;;;;;;;11.62;100.00;96522.91;1041434;28;20025;-50
2021/08/25 02:07:30;;;;;;;13.70;10.95;;;;;;;11.60;100.00;96526.56;1041260;28;20463;-51
2021/08/25 02:08:01;;;;;;;11.63;10.43;;;;;;;11.59;100.00;96519.66;1041392;28;20013;-49
2021/08/25 02:08:31;;;;;;;13.02;10.38;;;;;;;11.59;100.00;96525.72;1040877;28;20155;-50
2021/08/25 02:09:02;;;;;;;12.65;10.35;;;;;;;11.55;100.00;96521.63;1041082;28;20022;-50
2021/08/25 02:09:33;;;;;;;13.45;11.18;;;;;;;11.53;100.00;96528.75;1040952;28;20017;-51
2021/08/25 02:10:04;;;;;;;13.23;11.65;;;;;;;11.48;100.00;96525.59;1041148;28;20018;-51
2021/08/25 02:10:35;;;;;;;11.90;10.70;;;;;;;11.45;100.00;96531.03;1041407;28;20445;-51
2021/08/25 02:11:05;;;;;;;12.73;11.43;;;;;;;11.48;100.00;96534.28;1041389;28;20029;-49
2021/08/25 02:11:36;;;;;;;12.18;10.85;;;;;;;11.44;100.00;96524.94;1041336;28;20108;-51
2021/08/25 02:12:07;;;;;;;16.88;11.82;;;;;;;11.45;100.00;96534.50;1039494;28;20016;-50
2021/08/25 02:12:38;;;;;;;13.18;11.15;;;;;;;11.41;100.00;96534.78;1037294;28;20028;-51
2021/08/25 02:13:08;;;;;;;13.27;10.88;;;;;;;11.42;100.00;96532.06;1036767;28;20041;-52
2021/08/25 02:13:39;;;;;;;13.27;11.43;;;;;;;11.42;100.00;96531.22;1036794;28;20076;-52
2021/08/25 02:14:10;;;;;;;13.77;11.57;;;;;;;11.42;100.00;96533.84;1037069;28;20105;-51
2021/08/25 02:14:40;;;;;;;13.93;10.43;;;;;;;11.39;100.00;96540.16;1036912;28;20028;-51
2021/08/25 02:15:11;;;;;;;12.52;11.23;;;;;;;11.37;100.00;96539.38;1037192;28;20032;-51
2021/08/25 02:15:42;;;;;;;14.13;11.43;;;;;;;11.36;100.00;96537.72;1037252;28;20017;-50
2021/08/25 02:16:12;;;;;;;13.93;11.50;;;;;;;11.34;100.00;96538.75;1037403;28;20093;-52
2021/08/25 02:16:43;;;;;;;13.00;11.57;;;;;;;11.35;100.00;96536.03;1037335;28;20543;-51
2021/08/25 02:17:14;;;;;;;15.23;11.38;;;;;;;11.38;100.00;96540.25;1037370;28;20022;-50
2021/08/25 02:17:44;;;;;;;14.25;10.93;;;;;;;11.35;100.00;96537.81;1037097;28;20548;-50
2021/08/25 02:18:15;;;;;;;17.15;11.57;;;;;;;11.33;100.00;96539.69;1037369;28;20018;-51
2021/08/25 02:18:46;;;;;;;13.93;12.15;;;;;;;11.32;100.00;96540.63;1037105;28;20105;-50
2021/08/25 02:19:16;;;;;;;13.88;11.50;;;;;;;11.31;100.00;96536.31;1037332;28;20140;-52
2021/08/25 02:19:47;;;;;;;13.32;11.68;;;;;;;11.31;100.00;96538.94;1037217;28;20026;-51
2021/08/25 02:20:17;;;;;;;13.32;10.73;;;;;;;11.31;100.00;96537.16;1037172;28;20100;-52
2021/08/25 02:20:48;;;;;;;12.27;10.98;;;;;;;11.32;100.00;96541.47;1037268;28;20052;-51
2021/08/25 02:21:22;;;;;;;12.90;11.50;;;;;;;11.32;100.00;96540.63;1037311;28;20535;-52
2021/08/25 02:21:53;;;;;;;12.63;11.35;;;;;;;11.31;100.00;96537.16;1037252;28;20383;-52
2021/08/25 02:22:23;;;;;;;12.68;11.35;;;;;;;11.28;100.00;96534.75;1037326;28;20046;-51
2021/08/25 02:22:54;;;;;;;14.55;11.18;;;;;;;11.26;100.00;96536.59;1037060;28;20105;-50
2021/08/25 02:23:25;;;;;;;14.68;11.90;;;;;;;11.24;100.00;96534.09;1037265;28;20068;-52
2021/08/25 02:23:55;;;;;;;13.00;11.63;;;;;;;11.23;100.00;96537.66;1037250;28;20014;-52
2021/08/25 02:24:26;;;;;;;13.73;12.32;;;;;;;11.22;100.00;96533.38;1037303;28;20017;-51
2021/08/25 02:24:56;;;;;;;12.95;11.55;;;;;;;11.23;100.00;96536.81;1037217;28;20360;-51
2021/08/25 02:25:27;;;;;;;15.75;12.10;;;;;;;11.21;100.00;96529.03;1037359;28;20089;-53
2021/08/25 02:25:57;;;;;;;13.05;11.20;;;;;;;11.19;100.00;96533.53;1037164;28;20026;-50
2021/08/25 02:26:28;;;;;;;13.40;11.35;;;;;;;11.20;100.00;96529.97;1037335;28;20025;-51
2021/08/25 02:26:59;;;;;;;12.48;11.10;;;;;;;11.16;100.00;96533.72;1037264;28;20113;-50
2021/08/25 02:27:30;;;;;;;13.20;11.80;;;;;;;11.12;100.00;96534.03;1037275;28;20028;-51
2021/08/25 02:28:00;;;;;;;12.95;11.10;;;;;;;11.11;100.00;96543.66;1037269;28;20014;-50